Main page
METAR-TAF:

METAR-TAF

Airports :

Diepholz Air Base

Diepholz, Germany

latitude: 52-35N, longitude: 008-21E, elevation: 39 m

Current weather observation

The report was made 12 hours and 15 minutes ago, at 13:20 UTC
Wind 5 kt from the Northwest
Temperature 24°C
Humidity 47%
Pressure 1020 hPa
Visibility 10 km or more
Scattered clouds at a height of 4500 ft

METAR: ETND 241320Z 32005KT 9999 SCT045 24/12 Q1020 BLU+

Time: 03:35 (01:35 UTC)

Forecast

The report was made 15 hours and 27 minutes ago, at 10:08 UTC
Forecast valid from 24 at 11 UTC to 24 at 20 UTC
Wind 5 kt from the North/Northwest
Visibility 10 km or more
Few clouds at a height of 4000 ft

TAF: ETND 241008Z 2411/2420 33005KT 9999 NSW FEW040

Weather observations and forecasts of more than 4000 airports (METAR and TAF reports).

The available stations are represented by yellow and red dots on the map.

Hover mouse over dot to see the name of the station.

Then click to see weather observations and forecasts.

To change the map : click on the green buttons with a black cross to zoom in, on the green button with a dash to zoom out, or on the green arrows for adjacent maps.


METAR-TAF: